Time;durP1;ratioP1;P1;durP2;ratioP2;P2;SDS_P1;SDS_P2;PMS_P1;PMS_P2;Temp;Humidity;BMP_temperature;BMP_pressure;BME280_temperature;BME280_humidity;BME280_pressure;Samples;Min_cycle;Max_cycle;Signal;HPM_P1;HPM_P2
2023/07/12 00:00:46;;;;;;;;;0.33;0.33;;;;;-147.70;100.00;61350.09;5047298;28;45316;-73
2023/07/12 00:03:13;;;;;;;;;4.00;2.33;;;;;-147.70;100.00;61350.09;5053299;28;45247;-73
2023/07/12 00:05:39;;;;;;;;;1.33;1.33;;;;;-147.70;100.00;61350.09;5059180;28;45474;-73
2023/07/12 00:08:05;;;;;;;;;2.00;1.00;;;;;-147.70;100.00;61350.09;5058697;28;46399;-73
2023/07/12 00:10:35;;;;;;;;;4.00;1.00;;;;;-147.70;100.00;61350.09;5059127;28;45514;-73
2023/07/12 00:13:02;;;;;;;;;3.67;2.00;;;;;-147.70;100.00;61350.09;5058969;28;45289;-72
2023/07/12 00:15:30;;;;;;;;;1.00;1.00;;;;;-147.70;100.00;61350.09;5058924;27;45285;-74
2023/07/12 00:17:56;;;;;;;;;2.00;1.00;;;;;-147.70;100.00;61350.09;5058860;28;45447;-72
2023/07/12 00:20:34;;;;;;;;;2.00;1.00;;;;;-147.70;100.00;61350.09;5058844;28;45352;-74
2023/07/12 00:23:00;;;;;;;;;2.00;2.00;;;;;-147.70;100.00;61350.09;5058637;28;45340;-73
2023/07/12 00:25:30;;;;;;;;;2.33;1.00;;;;;-147.70;100.00;61350.09;5059020;28;45238;-73
2023/07/12 00:27:56;;;;;;;;;6.00;1.00;;;;;-147.70;100.00;61350.09;5058530;28;45428;-73
2023/07/12 00:30:29;;;;;;;;;1.00;1.00;;;;;-147.70;100.00;61350.09;5058298;28;45396;-73
2023/07/12 00:32:57;;;;;;;;;7.00;2.00;;;;;-147.70;100.00;61350.09;5057824;28;45466;-73
2023/07/12 00:35:25;;;;;;;;;2.33;1.00;;;;;-147.70;100.00;61350.09;5058764;28;45390;-72
2023/07/12 00:37:53;;;;;;;;;2.33;1.33;;;;;-147.70;100.00;61350.09;5058228;28;45800;-73
2023/07/12 00:40:39;;;;;;;;;1.33;1.00;;;;;-147.70;100.00;61350.09;5058653;28;45339;-74
2023/07/12 00:43:29;;;;;;;;;5.00;3.33;;;;;-147.70;100.00;61350.09;5039056;28;45355;-74
2023/07/12 00:45:58;;;;;;;;;2.00;2.00;;;;;-147.70;100.00;61350.09;5034517;28;45592;-73
2023/07/12 00:48:24;;;;;;;;;0.67;0.67;;;;;-147.70;100.00;61350.09;5037947;28;47423;-75
2023/07/12 00:50:50;;;;;;;;;4.00;3.00;;;;;-147.70;100.00;61350.09;5038022;28;45496;-74
2023/07/12 00:53:18;;;;;;;;;1.67;1.67;;;;;-147.70;100.00;61350.09;5038747;28;45392;-73
2023/07/12 00:56:05;;;;;;;;;1.33;1.00;;;;;-147.70;100.00;61350.09;5042871;28;45181;-72
2023/07/12 00:58:39;;;;;;;;;2.00;0.33;;;;;-147.70;100.00;61350.09;5047982;28;47164;-72
2023/07/12 01:01:06;;;;;;;;;1.33;1.00;;;;;-147.70;100.00;61350.09;5058123;28;45424;-72
2023/07/12 01:03:35;;;;;;;;;3.00;2.00;;;;;-147.70;100.00;61350.09;5043503;28;45411;-72
2023/07/12 01:06:01;;;;;;;;;3.33;1.00;;;;;-147.70;100.00;61350.09;5038117;28;45528;-72
2023/07/12 01:08:29;;;;;;;;;2.67;1.00;;;;;-147.70;100.00;61350.09;5037901;28;47294;-72
2023/07/12 01:10:56;;;;;;;;;1.33;1.33;;;;;-147.70;100.00;61350.09;5037962;28;45514;-73
2023/07/12 01:13:22;;;;;;;;;1.33;1.00;;;;;-147.70;100.00;61350.09;5037915;28;45249;-72
2023/07/12 01:15:48;;;;;;;;;2.00;2.00;;;;;-147.70;100.00;61350.09;5069032;28;45619;-72
2023/07/12 01:18:13;;;;;;;;;3.67;1.33;;;;;-147.70;100.00;61350.09;5057776;28;46238;-72
2023/07/12 01:20:41;;;;;;;;;3.00;1.00;;;;;-147.70;100.00;61350.09;5057960;28;45378;-72
2023/07/12 01:23:07;;;;;;;;;3.00;1.00;;;;;-147.70;100.00;61350.09;5058008;28;45262;-72
2023/07/12 01:25:39;;;;;;;;;0.33;0.00;;;;;-147.70;100.00;61350.09;5058024;28;45306;-72
2023/07/12 01:28:05;;;;;;;;;2.33;1.00;;;;;-147.70;100.00;61350.09;5056871;28;45451;-72
2023/07/12 01:30:31;;;;;;;;;1.00;1.00;;;;;-147.70;100.00;61350.09;5055037;28;45462;-72
2023/07/12 01:32:57;;;;;;;;;5.00;1.33;;;;;-147.70;100.00;61350.09;5057627;28;45311;-73
2023/07/12 01:35:22;;;;;;;;;2.00;1.33;;;;;-147.70;100.00;61350.09;5058060;28;45407;-72
2023/07/12 01:37:48;;;;;;;;;0.67;0.00;;;;;-147.70;100.00;61350.09;5057358;28;47000;-72
2023/07/12 01:40:13;;;;;;;;;2.67;1.00;;;;;-147.70;100.00;61350.09;5057551;28;45433;-73
2023/07/12 01:42:39;;;;;;;;;2.67;1.00;;;;;-147.70;100.00;61350.09;5057013;28;45514;-72
2023/07/12 01:45:04;;;;;;;;;1.33;1.00;;;;;-147.70;100.00;61350.09;5057983;28;45493;-73
2023/07/12 01:47:30;;;;;;;;;1.00;1.00;;;;;-147.70;100.00;61350.09;5057660;28;46365;-73
2023/07/12 01:49:56;;;;;;;;;1.33;1.33;;;;;-147.70;100.00;61350.09;5057455;28;45415;-73
2023/07/12 01:52:22;;;;;;;;;2.67;1.00;;;;;-147.70;100.00;61350.09;5056100;28;45414;-72
2023/07/12 01:54:49;;;;;;;;;3.00;1.33;;;;;-147.70;100.00;61350.09;5057428;28;45419;-73
2023/07/12 01:57:15;;;;;;;;;1.00;1.00;;;;;-147.70;100.00;61350.09;5057305;28;46415;-73
2023/07/12 01:59:40;;;;;;;;;3.00;1.00;;;;;-147.70;100.00;61350.09;5057286;28;45424;-73
2023/07/12 02:02:05;;;;;;;;;2.33;1.00;;;;;-147.70;100.00;61350.09;5057236;28;45463;-73
2023/07/12 02:04:31;;;;;;;;;3.00;3.00;;;;;-147.70;100.00;61350.09;5057413;28;45300;-72
2023/07/12 02:06:56;;;;;;;;;0.00;0.00;;;;;-147.70;100.00;61350.09;5057017;28;45477;-72
2023/07/12 02:09:23;;;;;;;;;1.33;1.33;;;;;-147.70;100.00;61350.09;5057039;28;45381;-73
2023/07/12 02:11:48;;;;;;;;;4.00;1.67;;;;;-147.70;100.00;61350.09;5057217;28;45274;-73
2023/07/12 02:14:13;;;;;;;;;2.00;1.00;;;;;-147.70;100.00;61350.09;5057463;28;45330;-72
2023/07/12 02:16:39;;;;;;;;;3.67;3.67;;;;;-147.70;100.00;61350.09;5056863;28;45423;-72
2023/07/12 02:19:07;;;;;;;;;3.00;3.00;;;;;-147.70;100.00;61350.09;5057163;28;45200;-72
2023/07/12 02:21:32;;;;;;;;;3.00;2.33;;;;;-147.70;100.00;61350.09;5057065;28;45287;-73
2023/07/12 02:23:58;;;;;;;;;1.33;1.33;;;;;-147.70;100.00;61350.09;5057471;28;45415;-73
2023/07/12 02:26:23;;;;;;;;;2.00;2.00;;;;;-147.70;100.00;61350.09;5056899;28;46223;-73
2023/07/12 02:28:48;;;;;;;;;4.00;2.00;;;;;-147.70;100.00;61350.09;5056712;28;45498;-73
2023/07/12 02:31:21;;;;;;;;;2.00;2.00;;;;;-147.70;100.00;61350.09;5057389;28;45400;-73
2023/07/12 02:33:47;;;;;;;;;5.00;2.00;;;;;-147.70;100.00;61350.09;5057047;28;45531;-73
2023/07/12 02:36:13;;;;;;;;;2.33;2.00;;;;;-147.70;100.00;61350.09;5056831;28;46370;-73
2023/07/12 02:38:38;;;;;;;;;3.00;2.67;;;;;-147.70;100.00;61350.09;5056481;28;45415;-73
2023/07/12 02:41:06;;;;;;;;;2.00;2.00;;;;;-147.70;100.00;61350.09;5056810;28;45331;-73
2023/07/12 02:43:31;;;;;;;;;5.67;2.00;;;;;-147.70;100.00;61350.09;5056991;28;45360;-74
2023/07/12 02:45:57;;;;;;;;;3.33;3.33;;;;;-147.70;100.00;61350.09;5056598;28;45933;-73
2023/07/12 02:48:22;;;;;;;;;3.67;3.00;;;;;-147.70;100.00;61350.09;5056777;28;45308;-73
2023/07/12 02:50:47;;;;;;;;;4.00;2.00;;;;;-147.70;100.00;61350.09;5056696;28;45276;-74
2023/07/12 02:53:14;;;;;;;;;3.00;1.33;;;;;-147.70;100.00;61350.09;5056784;28;45396;-73
2023/07/12 02:55:39;;;;;;;;;3.67;2.00;;;;;-147.70;100.00;61350.09;5058634;28;45560;-73
2023/07/12 02:58:05;;;;;;;;;3.67;2.00;;;;;-147.70;100.00;61350.09;5058537;28;45377;-72
2023/07/12 03:00:30;;;;;;;;;2.33;2.33;;;;;-147.70;100.00;61350.09;5060376;28;45375;-72
2023/07/12 03:02:55;;;;;;;;;3.00;1.00;;;;;-147.70;100.00;61350.09;5059893;28;45213;-73
2023/07/12 03:05:22;;;;;;;;;3.33;3.00;;;;;-147.70;100.00;61350.09;5059879;28;45863;-72
2023/07/12 03:07:47;;;;;;;;;2.00;2.00;;;;;-147.70;100.00;61350.09;5059786;28;45210;-72
2023/07/12 03:10:13;;;;;;;;;2.50;1.00;;;;;-147.70;100.00;61350.09;5059937;28;45341;-72
2023/07/12 03:12:38;;;;;;;;;2.00;2.00;;;;;-147.70;100.00;61350.09;5060299;28;45548;-71
2023/07/12 03:15:03;;;;;;;;;2.00;2.00;;;;;-147.70;100.00;61350.09;5059883;28;45522;-72
2023/07/12 03:17:29;;;;;;;;;3.33;3.00;;;;;-147.70;100.00;61350.09;5059738;28;45413;-72
2023/07/12 03:19:54;;;;;;;;;3.00;2.00;;;;;-147.70;100.00;61350.09;5059992;28;45399;-73
2023/07/12 03:22:19;;;;;;;;;3.00;1.00;;;;;-147.70;100.00;61350.09;5059951;28;45301;-72
2023/07/12 03:24:45;;;;;;;;;2.00;2.00;;;;;-147.70;100.00;61350.09;5059595;28;45333;-73
2023/07/12 03:27:10;;;;;;;;;4.00;2.67;;;;;-147.70;100.00;61350.09;5059741;28;45396;-73
2023/07/12 03:29:36;;;;;;;;;1.00;1.00;;;;;-147.70;100.00;61350.09;5059678;28;45545;-74
2023/07/12 03:32:01;;;;;;;;;2.67;2.67;;;;;-147.70;100.00;61350.09;5059805;28;45579;-73
2023/07/12 03:34:27;;;;;;;;;2.00;2.00;;;;;-147.70;100.00;61350.09;5059446;28;46500;-72
2023/07/12 03:36:52;;;;;;;;;2.00;2.00;;;;;-147.70;100.00;61350.09;5059488;28;45459;-72
2023/07/12 03:39:17;;;;;;;;;2.00;2.00;;;;;-147.70;100.00;61350.09;5059401;28;45387;-73
2023/07/12 03:41:43;;;;;;;;;2.67;2.33;;;;;-147.70;100.00;61350.09;5059667;28;45538;-76
2023/07/12 03:44:08;;;;;;;;;4.00;3.00;;;;;-147.70;100.00;61350.09;5059335;28;47147;-73
2023/07/12 03:46:33;;;;;;;;;3.33;2.00;;;;;-147.70;100.00;61350.09;5059411;28;45291;-76
2023/07/12 03:48:59;;;;;;;;;4.00;3.00;;;;;-147.70;100.00;61350.09;5059494;28;45301;-76
2023/07/12 03:51:24;;;;;;;;;4.67;3.00;;;;;-147.70;100.00;61350.09;5059634;28;45543;-76
2023/07/12 03:53:50;;;;;;;;;4.67;2.33;;;;;-147.70;100.00;61350.09;5058812;28;46514;-76
2023/07/12 03:56:15;;;;;;;;;28.33;26.00;;;;;-147.70;100.00;61350.09;5059415;28;45166;-76
2023/07/12 03:58:40;;;;;;;;;10.67;7.00;;;;;-147.70;100.00;61350.09;5059624;28;45736;-75
2023/07/12 04:01:11;;;;;;;;;3.00;2.33;;;;;-147.70;100.00;61350.09;5059465;28;45627;-75
2023/07/12 04:03:37;;;;;;;;;3.33;3.33;;;;;-147.70;100.00;61350.09;5058778;28;46051;-76
2023/07/12 04:06:04;;;;;;;;;5.00;3.00;;;;;-147.70;100.00;61350.09;5058799;28;45325;-76
2023/07/12 04:08:30;;;;;;;;;9.33;3.67;;;;;-147.70;100.00;61350.09;5059245;28;45685;-77
2023/07/12 04:10:56;;;;;;;;;6.00;2.67;;;;;-147.70;100.00;61350.09;5059088;28;45449;-75
2023/07/12 04:13:23;;;;;;;;;1.67;1.33;;;;;-147.70;100.00;61350.09;5058919;28;45434;-77
2023/07/12 04:15:53;;;;;;;;;2.00;2.00;;;;;-147.70;100.00;61350.09;5058790;28;45561;-74
2023/07/12 04:18:18;;;;;;;;;5.00;2.00;;;;;-147.70;100.00;61350.09;5058832;28;45360;-75
2023/07/12 04:20:43;;;;;;;;;4.33;2.67;;;;;-147.70;100.00;61350.09;5059122;28;45325;-77
2023/07/12 04:23:09;;;;;;;;;2.67;2.00;;;;;-147.70;100.00;61350.09;5058629;28;46292;-77
2023/07/12 04:25:35;;;;;;;;;2.33;2.00;;;;;-147.70;100.00;61350.09;5058747;28;45214;-76
2023/07/12 04:28:00;;;;;;;;;6.00;3.00;;;;;-147.70;100.00;61350.09;5058874;28;45214;-76
2023/07/12 04:30:25;;;;;;;;;3.67;2.33;;;;;-147.70;100.00;61350.09;5058597;28;45461;-77
2023/07/12 04:32:52;;;;;;;;;5.00;2.67;;;;;-147.70;100.00;61350.09;5058484;28;46936;-77
2023/07/12 04:35:17;;;;;;;;;4.00;2.00;;;;;-147.70;100.00;61350.09;5058546;28;45232;-77
2023/07/12 04:37:50;;;;;;;;;5.33;3.00;;;;;-147.70;100.00;61350.09;5058542;28;45507;-76
2023/07/12 04:40:17;;;;;;;;;5.67;2.33;;;;;-147.70;100.00;61350.09;5059029;28;45498;-76
2023/07/12 04:42:42;;;;;;;;;2.33;2.00;;;;;-147.70;100.00;61350.09;5057956;28;46483;-75
2023/07/12 04:45:09;;;;;;;;;4.00;2.00;;;;;-147.70;100.00;61350.09;5058608;28;45278;-78
2023/07/12 04:47:35;;;;;;;;;2.00;2.00;;;;;-147.70;100.00;61350.09;5058708;28;45413;-75
2023/07/12 04:50:00;;;;;;;;;2.00;2.00;;;;;-147.70;100.00;61350.09;5058351;28;45484;-75
2023/07/12 04:52:26;;;;;;;;;3.00;3.00;;;;;-147.70;100.00;61350.09;5058456;28;46210;-75
2023/07/12 04:54:56;;;;;;;;;2.67;2.33;;;;;-147.70;100.00;61350.09;5057800;28;45411;-76
2023/07/12 04:57:21;;;;;;;;;3.33;2.00;;;;;-147.70;100.00;61350.09;5056872;28;45372;-78
2023/07/12 04:59:46;;;;;;;;;4.67;3.00;;;;;-147.70;100.00;61350.09;5058674;28;45363;-79
2023/07/12 05:02:12;;;;;;;;;6.00;3.00;;;;;-147.70;100.00;61350.09;5057938;28;45365;-69
2023/07/12 05:04:37;;;;;;;;;7.00;2.00;;;;;-147.70;100.00;61350.09;5058099;28;45626;-69
2023/07/12 05:07:03;;;;;;;;;5.00;3.00;;;;;-147.70;100.00;61350.09;5058037;28;45324;-71
2023/07/12 05:09:28;;;;;;;;;6.00;2.33;;;;;-147.70;100.00;61350.09;5058034;28;45421;-69
2023/07/12 05:11:54;;;;;;;;;3.67;2.67;;;;;-147.70;100.00;61350.09;5057993;28;45957;-70
2023/07/12 05:14:19;;;;;;;;;25.33;20.33;;;;;-147.70;100.00;61350.09;5058016;28;45361;-68
2023/07/12 05:16:45;;;;;;;;;3.67;3.00;;;;;-147.70;100.00;61350.09;5057735;28;45293;-69
2023/07/12 05:19:11;;;;;;;;;3.33;2.00;;;;;-147.70;100.00;61350.09;5057470;28;45487;-68
2023/07/12 05:21:36;;;;;;;;;5.00;4.00;;;;;-147.70;100.00;61350.09;5057746;28;46000;-69
2023/07/12 05:24:01;;;;;;;;;5.00;2.33;;;;;-147.70;100.00;61350.09;5057743;28;45446;-71
2023/07/12 05:26:27;;;;;;;;;3.67;2.00;;;;;-147.70;100.00;61350.09;5057796;28;45850;-68
2023/07/12 05:28:52;;;;;;;;;2.00;2.00;;;;;-147.70;100.00;61350.09;5057885;28;45292;-69
2023/07/12 05:31:18;;;;;;;;;3.67;3.00;;;;;-147.70;100.00;61350.09;5057386;28;45360;-69
2023/07/12 05:33:45;;;;;;;;;17.00;13.00;;;;;-147.70;100.00;61350.09;5057739;28;45290;-68
2023/07/12 05:36:12;;;;;;;;;4.67;4.00;;;;;-147.70;100.00;61350.09;5057907;28;45388;-68
2023/07/12 05:38:37;;;;;;;;;3.67;3.33;;;;;-147.70;100.00;61350.09;5057463;28;45316;-68
2023/07/12 05:41:03;;;;;;;;;4.67;4.00;;;;;-147.70;100.00;61350.09;5057589;28;46592;-69
2023/07/12 05:43:28;;;;;;;;;3.67;3.00;;;;;-147.70;100.00;61350.09;5057339;28;45465;-69
2023/07/12 05:45:57;;;;;;;;;4.67;4.00;;;;;-147.70;100.00;61350.09;5057548;28;45442;-68
2023/07/12 05:48:23;;;;;;;;;2.00;2.00;;;;;-147.70;100.00;61350.09;5056966;28;45320;-71
2023/07/12 05:50:51;;;;;;;;;2.33;1.67;;;;;-147.70;100.00;61350.09;5056757;28;46386;-69
2023/07/12 05:53:16;;;;;;;;;2.67;2.33;;;;;-147.70;100.00;61350.09;5057317;28;45223;-69
2023/07/12 05:55:42;;;;;;;;;4.67;3.67;;;;;-147.70;100.00;61350.09;5056075;28;45461;-71
2023/07/12 05:58:07;;;;;;;;;7.00;4.00;;;;;-147.70;100.00;61350.09;5057580;28;45396;-71
2023/07/12 06:00:32;;;;;;;;;3.33;3.33;;;;;-147.70;100.00;61350.09;5055948;28;46741;-72
2023/07/12 06:02:58;;;;;;;;;3.00;3.00;;;;;-147.70;100.00;61350.09;5056785;28;45312;-71
2023/07/12 06:05:23;;;;;;;;;8.67;4.00;;;;;-147.70;100.00;61350.09;5057427;28;45197;-71
2023/07/12 06:07:49;;;;;;;;;2.00;2.00;;;;;-147.70;100.00;61350.09;5045631;28;45534;-70
2023/07/12 06:10:15;;;;;;;;;7.33;3.00;;;;;-147.70;100.00;61350.09;5036287;28;46420;-70
2023/07/12 06:12:41;;;;;;;;;7.67;5.00;;;;;-147.70;100.00;61350.09;5036845;28;45341;-70
2023/07/12 06:15:07;;;;;;;;;3.33;2.00;;;;;-147.70;100.00;61350.09;5037147;28;45258;-70
2023/07/12 06:17:32;;;;;;;;;6.00;3.00;;;;;-147.70;100.00;61350.09;5037342;28;45412;-70
2023/07/12 06:19:58;;;;;;;;;3.00;3.00;;;;;-147.70;100.00;61350.09;5036530;28;47414;-71
2023/07/12 06:22:23;;;;;;;;;7.33;2.00;;;;;-147.70;100.00;61350.09;5036794;28;45315;-70
2023/07/12 06:24:48;;;;;;;;;5.67;4.00;;;;;-147.70;100.00;61350.09;5037052;28;45434;-70
2023/07/12 06:27:14;;;;;;;;;4.00;2.33;;;;;-147.70;100.00;61350.09;5037171;28;45797;-70
2023/07/12 06:29:41;;;;;;;;;5.33;4.00;;;;;-147.70;100.00;61350.09;5038754;28;47054;-70
2023/07/12 06:32:08;;;;;;;;;3.67;2.00;;;;;-147.70;100.00;61350.09;5047723;28;45432;-71
2023/07/12 06:34:34;;;;;;;;;3.33;3.00;;;;;-147.70;100.00;61350.09;5060549;28;45509;-70
2023/07/12 06:36:59;;;;;;;;;11.00;4.67;;;;;-147.70;100.00;61350.09;5060574;28;45464;-70
2023/07/12 06:39:24;;;;;;;;;5.67;2.00;;;;;-147.70;100.00;61350.09;5060066;28;45380;-71
2023/07/12 06:41:50;;;;;;;;;2.00;2.00;;;;;-147.70;100.00;61350.09;5059128;28;45411;-68
2023/07/12 06:44:15;;;;;;;;;4.00;3.33;;;;;-147.70;100.00;61350.09;5059157;28;45425;-68
2023/07/12 06:46:41;;;;;;;;;2.33;2.33;;;;;-147.70;100.00;61350.09;5060061;28;45432;-72
2023/07/12 06:49:06;;;;;;;;;10.67;6.00;;;;;-147.70;100.00;61350.09;5059992;28;45552;-72
2023/07/12 06:51:31;;;;;;;;;3.00;3.00;;;;;-147.70;100.00;61350.09;5059875;28;45477;-72
2023/07/12 06:53:57;;;;;;;;;8.00;5.33;;;;;-147.70;100.00;61350.09;5060094;28;45290;-75
2023/07/12 06:56:22;;;;;;;;;6.33;5.00;;;;;-147.70;100.00;61350.09;5060275;28;45666;-67
2023/07/12 06:58:47;;;;;;;;;2.33;1.67;;;;;-147.70;100.00;61350.09;5059727;28;46463;-75
2023/07/12 07:01:13;;;;;;;;;3.00;3.00;;;;;-147.70;100.00;61350.09;5057981;28;45510;-70
2023/07/12 07:03:38;;;;;;;;;5.33;3.00;;;;;-147.70;100.00;61350.09;5045458;28;45479;-71
2023/07/12 07:06:03;;;;;;;;;2.00;2.00;;;;;-147.70;100.00;61350.09;5040153;28;45401;-71
2023/07/12 07:08:29;;;;;;;;;3.33;3.33;;;;;-147.70;100.00;61350.09;5050526;28;45587;-70
2023/07/12 07:10:56;;;;;;;;;2.00;2.00;;;;;-147.70;100.00;61350.09;5059091;28;45310;-75
2023/07/12 07:13:22;;;;;;;;;3.33;3.00;;;;;-147.70;100.00;61350.09;5059920;28;45444;-72
2023/07/12 07:15:48;;;;;;;;;3.00;3.00;;;;;-147.70;100.00;61350.09;5059773;28;45225;-73
2023/07/12 07:18:14;;;;;;;;;6.33;4.00;;;;;-147.70;100.00;61350.09;5059672;28;45824;-72
2023/07/12 07:20:40;;;;;;;;;3.67;3.67;;;;;-147.70;100.00;61350.09;5059342;28;45408;-76
2023/07/12 07:23:05;;;;;;;;;3.00;3.00;;;;;-147.70;100.00;61350.09;5060024;28;45381;-77
2023/07/12 07:25:31;;;;;;;;;7.00;3.00;;;;;-147.70;100.00;61350.09;5059888;28;45377;-79
2023/07/12 07:27:56;;;;;;;;;4.33;2.67;;;;;-147.70;100.00;61350.09;5059542;28;45340;-74
2023/07/12 07:30:22;;;;;;;;;4.00;2.00;;;;;-147.70;100.00;61350.09;5059412;28;45354;-77
2023/07/12 07:32:47;;;;;;;;;3.00;3.00;;;;;-147.70;100.00;61350.09;5059205;28;45357;-76
2023/07/12 07:35:13;;;;;;;;;3.00;3.00;;;;;-147.70;100.00;61350.09;5059822;28;45322;-76
2023/07/12 07:37:39;;;;;;;;;3.00;3.00;;;;;-147.70;100.00;61350.09;5059236;28;47314;-75
2023/07/12 07:40:05;;;;;;;;;6.00;3.33;;;;;-147.70;100.00;61350.09;5058811;28;45249;-77
2023/07/12 07:42:30;;;;;;;;;3.00;3.00;;;;;-147.70;100.00;61350.09;5057818;28;45337;-75
2023/07/12 07:44:56;;;;;;;;;3.00;1.00;;;;;-147.70;100.00;61350.09;5058239;28;45420;-76
2023/07/12 07:47:21;;;;;;;;;2.00;2.00;;;;;-147.70;100.00;61350.09;5074446;28;45446;-77
2023/07/12 07:49:47;;;;;;;;;3.00;2.33;;;;;-147.70;100.00;61350.09;5059460;28;45333;-75
2023/07/12 07:52:12;;;;;;;;;4.00;2.00;;;;;-147.70;100.00;61350.09;5059341;28;45355;-77
2023/07/12 07:54:39;;;;;;;;;2.00;2.00;;;;;-147.70;100.00;61350.09;5058968;28;45404;-77
2023/07/12 07:57:06;;;;;;;;;2.00;1.00;;;;;-147.70;100.00;61350.09;5059180;28;46965;-76
2023/07/12 07:59:31;;;;;;;;;3.00;1.33;;;;;-147.70;100.00;61350.09;5058207;28;45270;-76
2023/07/12 08:01:57;;;;;;;;;2.00;2.00;;;;;-147.70;100.00;61350.09;5058728;28;45435;-73
2023/07/12 08:04:23;;;;;;;;;4.33;2.00;;;;;-147.70;100.00;61350.09;5059257;28;45422;-71
2023/07/12 08:06:50;;;;;;;;;2.33;0.33;;;;;-147.70;100.00;61350.09;5058654;28;46477;-72
2023/07/12 08:09:15;;;;;;;;;4.33;2.00;;;;;-147.70;100.00;61350.09;5058664;28;45527;-72
2023/07/12 08:11:41;;;;;;;;;2.00;2.00;;;;;-147.70;100.00;61350.09;5058526;28;45315;-72
2023/07/12 08:14:07;;;;;;;;;3.00;1.33;;;;;-147.70;100.00;61350.09;5059034;28;45484;-72
2023/07/12 08:16:35;;;;;;;;;1.00;1.00;;;;;-147.70;100.00;61350.09;5058452;28;45250;-71
2023/07/12 08:19:02;;;;;;;;;2.33;1.00;;;;;-147.70;100.00;61350.09;5058350;28;45318;-72
2023/07/12 08:21:28;;;;;;;;;2.00;2.00;;;;;-147.70;100.00;61350.09;5058514;28;45426;-70
2023/07/12 08:23:54;;;;;;;;;1.00;1.00;;;;;-147.70;100.00;61350.09;5058650;28;45321;-71
2023/07/12 08:26:19;;;;;;;;;1.00;1.00;;;;;-147.70;100.00;61350.09;5058772;28;45591;-72
2023/07/12 08:28:45;;;;;;;;;1.67;1.67;;;;;-147.70;100.00;61350.09;5058039;28;45346;-71
2023/07/12 08:31:10;;;;;;;;;1.00;1.00;;;;;-147.70;100.00;61350.09;5058082;28;45667;-72
2023/07/12 08:33:36;;;;;;;;;1.00;1.00;;;;;-147.70;100.00;61350.09;5058999;28;45348;-72
2023/07/12 08:36:01;;;;;;;;;5.67;5.67;;;;;-147.70;100.00;61350.09;5058286;28;46270;-72
2023/07/12 08:38:31;;;;;;;;;4.00;2.00;;;;;-147.70;100.00;61350.09;5056651;28;45660;-70
2023/07/12 08:40:57;;;;;;;;;2.00;2.00;;;;;-147.70;100.00;61350.09;5057689;28;45391;-70
2023/07/12 08:43:31;;;;;;;;;5.00;1.00;;;;;-147.70;100.00;61350.09;5057791;28;45402;-73
2023/07/12 08:46:04;;;;;;;;;2.33;1.33;;;;;-147.70;100.00;61350.09;5058186;28;46723;-72
2023/07/12 08:48:30;;;;;;;;;1.67;1.00;;;;;-147.70;100.00;61350.09;5057659;28;45420;-72
2023/07/12 08:50:55;;;;;;;;;1.33;1.33;;;;;-147.70;100.00;61350.09;5056519;28;45905;-72
2023/07/12 08:53:25;;;;;;;;;2.00;2.00;;;;;-147.70;100.00;61350.09;5043788;28;45459;-72
2023/07/12 08:55:52;;;;;;;;;0.67;0.67;;;;;-147.70;100.00;61350.09;5037417;28;47361;-74
2023/07/12 08:58:24;;;;;;;;;3.00;1.67;;;;;-147.70;100.00;61350.09;5037843;28;45323;-73
2023/07/12 09:01:01;;;;;;;;;2.00;2.00;;;;;-147.70;100.00;61350.09;5044472;28;45737;-76
2023/07/12 09:03:26;;;;;;;;;2.00;2.00;;;;;-147.70;100.00;61350.09;5040858;28;45322;-73
2023/07/12 09:05:52;;;;;;;;;5.00;3.00;;;;;-147.70;100.00;61350.09;5037816;28;45404;-73
2023/07/12 09:08:31;;;;;;;;;1.00;1.00;;;;;-147.70;100.00;61350.09;5038160;28;45304;-73
2023/07/12 09:10:57;;;;;;;;;2.67;1.67;;;;;-147.70;100.00;61350.09;5037771;28;45348;-75
2023/07/12 09:13:34;;;;;;;;;1.67;1.67;;;;;-147.70;100.00;61350.09;5038252;28;45582;-74
2023/07/12 09:16:00;;;;;;;;;2.00;2.00;;;;;-147.70;100.00;61350.09;5050127;28;45308;-72
2023/07/12 09:18:37;;;;;;;;;2.00;1.67;;;;;-147.70;100.00;61350.09;5040240;28;45377;-72
2023/07/12 09:21:20;;;;;;;;;1.00;1.00;;;;;-147.70;100.00;61350.09;5037733;28;45322;-73
2023/07/12 09:23:46;;;;;;;;;1.00;1.00;;;;;-147.70;100.00;61350.09;5054612;28;45537;-71
2023/07/12 09:26:20;;;;;;;;;3.00;1.00;;;;;-147.70;100.00;61350.09;5046159;28;45312;-71
2023/07/12 09:28:46;;;;;;;;;1.00;1.00;;;;;-147.70;100.00;61350.09;5037452;28;45412;-72
2023/07/12 09:31:21;;;;;;;;;1.67;1.67;;;;;-147.70;100.00;61350.09;5037857;28;45529;-71
2023/07/12 09:33:59;;;;;;;;;1.00;1.00;;;;;-147.70;100.00;61350.09;5037761;28;45448;-72
2023/07/12 09:36:25;;;;;;;;;1.00;1.00;;;;;-147.70;100.00;61350.09;5037609;28;46122;-73
2023/07/12 09:38:50;;;;;;;;;1.00;1.00;;;;;-147.70;100.00;61350.09;5037096;28;45519;-73
2023/07/12 09:41:22;;;;;;;;;1.00;1.00;;;;;-147.70;100.00;61350.09;5037811;28;45372;-71
2023/07/12 09:43:59;;;;;;;;;1.67;1.67;;;;;-147.70;100.00;61350.09;5037843;28;45428;-72
2023/07/12 09:46:31;;;;;;;;;0.00;0.00;;;;;-147.70;100.00;61350.09;5037350;28;45392;-72
2023/07/12 09:49:19;;;;;;;;;1.33;1.33;;;;;-147.70;100.00;61350.09;5039386;28;45288;-72
2023/07/12 09:52:14;;;;;;;;;0.00;0.00;;;;;-147.70;100.00;61350.09;5053502;28;46297;-72
2023/07/12 09:55:01;;;;;;;;;0.00;0.00;;;;;-147.70;100.00;61350.09;5040952;28;45372;-72
2023/07/12 09:57:57;;;;;;;;;0.00;0.00;;;;;-147.70;100.00;61350.09;5039893;28;46388;-74
2023/07/12 10:00:54;;;;;;;;;2.00;0.67;;;;;-147.70;100.00;61350.09;5047822;28;45548;-72
2023/07/12 10:03:29;;;;;;;;;0.67;0.67;;;;;-147.70;100.00;61350.09;5046768;28;45470;-71
2023/07/12 10:05:58;;;;;;;;;1.67;0.33;;;;;-147.70;100.00;61350.09;5057381;28;45446;-71
2023/07/12 10:08:29;;;;;;;;;3.33;0.67;;;;;-147.70;100.00;61350.09;5056965;28;46214;-71
2023/07/12 10:10:57;;;;;;;;;1.00;0.00;;;;;-147.70;100.00;61350.09;5046289;28;45512;-72
2023/07/12 10:13:42;;;;;;;;;0.00;0.00;;;;;-147.70;100.00;61350.09;5038241;28;45390;-73
2023/07/12 10:16:19;;;;;;;;;19.25;18.50;;;;;-147.70;100.00;61350.09;5044592;28;45452;-73
2023/07/12 10:18:48;;;;;;;;;0.33;0.33;;;;;-147.70;100.00;61350.09;5056752;28;45430;-73
2023/07/12 10:21:18;;;;;;;;;0.00;0.00;;;;;-147.70;100.00;61350.09;5052453;28;45528;-73
2023/07/12 10:23:49;;;;;;;;;0.00;0.00;;;;;-147.70;100.00;61350.09;5047951;28;45304;-72
2023/07/12 10:26:15;;;;;;;;;2.67;2.33;;;;;-147.70;100.00;61350.09;5049394;28;45442;-72
2023/07/12 10:29:09;;;;;;;;;0.33;0.33;;;;;-147.70;100.00;61350.09;5049678;28;46682;-72
2023/07/12 10:31:51;;;;;;;;;0.33;0.33;;;;;-147.70;100.00;61350.09;5032268;28;45452;-72
2023/07/12 10:34:25;;;;;;;;;2.00;0.00;;;;;-147.70;100.00;61350.09;5030164;28;45497;-74
2023/07/12 10:36:55;;;;;;;;;0.33;0.33;;;;;-147.70;100.00;61350.09;5022613;28;45485;-72
2023/07/12 10:39:23;;;;;;;;;0.33;0.00;;;;;-147.70;100.00;61350.09;5023725;28;45501;-71
2023/07/12 10:41:54;;;;;;;;;0.67;0.67;;;;;-147.70;100.00;61350.09;5014337;28;45613;-76
2023/07/12 10:44:24;;;;;;;;;4.00;3.33;;;;;-147.70;100.00;61350.09;5030097;28;45485;-75
2023/07/12 10:46:58;;;;;;;;;0.00;0.00;;;;;-147.70;100.00;61350.09;5028031;28;45519;-76
2023/07/12 10:49:40;;;;;;;;;0.67;0.67;;;;;-147.70;100.00;61350.09;5034130;28;46454;-76
2023/07/12 10:52:18;;;;;;;;;7.00;5.33;;;;;-147.70;100.00;61350.09;5034257;28;45426;-74
2023/07/12 10:55:03;;;;;;;;;0.00;0.00;;;;;-147.70;100.00;61350.09;5034408;28;45415;-75
2023/07/12 10:57:39;;;;;;;;;0.00;0.00;;;;;-147.70;100.00;61350.09;5034415;28;45500;-74
2023/07/12 11:00:26;;;;;;;;;0.00;0.00;;;;;-147.70;100.00;61350.09;5034199;28;46526;-76
2023/07/12 11:03:03;;;;;;;;;0.67;0.67;;;;;-147.70;100.00;61350.09;5033935;28;45540;-75
2023/07/12 11:05:47;;;;;;;;;0.00;0.00;;;;;-147.70;100.00;61350.09;5034330;28;45344;-75
2023/07/12 11:08:31;;;;;;;;;0.00;0.00;;;;;-147.70;100.00;61350.09;5035077;28;45552;-75
2023/07/12 11:11:01;;;;;;;;;0.00;0.00;;;;;-147.70;100.00;61350.09;5036072;28;46562;-74
2023/07/12 11:13:32;;;;;;;;;1.33;0.67;;;;;-147.70;100.00;61350.09;5036175;28;45337;-75